Circle Line Xii — WM8392 — position and weather

sailwx.info

Track history (hours):
 
Tides and Currents Weather Stations Pressure Air Temp Water Temp Dewpoint Dewpoint Depression Visibility Wind Speed Wind Dir Waves Ship Positions

Circle Line Xii

Owner: CIRCLE LINE SIGHTSEEING YACHTS, NEW YORK, NY. More information available from US FCC via Universal Licensing System and Coast Guard Vessel Documentation Center.

Last reported at 2015-Jul-05 02:34 UTC. Time now 2015-Jul-05 13:17 UTC.
Position N 40°43' W 074°01'.

MMSI: 367032250.

Date/timePositionNaut miles runAvg speedWind from/ knotsBaromVisibWave heightAir tempDewpointWater temp
2015-Jul-05 02:34N 40°43' W 074°01'3 2.1
2015-Jul-05 01:21N 40°44' W 073°58'0 0.0
2015-Jul-05 00:33N 40°44' W 073°58'0 0.1
2015-Jul-04 23:33N 40°44' W 073°58'0 0.4
2015-Jul-04 22:33N 40°44' W 073°58'3 2.9
2015-Jul-04 21:33N 40°42' W 074°00'4 3.9
2015-Jul-04 20:33N 40°46' W 074°00'0 0.1
2015-Jul-04 19:32N 40°46' W 074°00'0 0.0
2015-Jul-04 01:07N 40°46' W 074°00'3 6.2
2015-Jul-04 00:34N 40°42' W 074°01'1 1.1
2015-Jul-03 23:34N 40°42' W 074°02'4 4.3
2015-Jul-03 22:32N 40°46' W 074°00'0 0.5
2015-Jul-03 21:33N 40°45' W 074°01'0 0.4
2015-Jul-03 20:32N 40°46' W 074°00'0 0.0
2015-Jul-03 19:32N 40°46' W 074°00'0 0.0
2015-Jul-03 18:32N 40°46' W 074°00'0 0.0
2015-Jul-03 17:32N 40°46' W 074°00'0 0.0
2015-Jul-03 16:31N 40°46' W 074°00'0 0.0
2015-Jul-03 15:31N 40°46' W 074°00'5 4.9
2015-Jul-03 14:33N 40°41' W 074°02'5 4.5
2015-Jul-03 13:31N 40°46' W 074°00'0 0.0
2015-Jul-03 12:31N 40°46' W 074°00'0 0.0
2015-Jul-03 11:31N 40°46' W 074°00'0 0.0
2015-Jul-03 10:31N 40°46' W 074°00'0 0.0
2015-Jul-03 09:31N 40°46' W 074°00'0 0.0
2015-Jul-03 08:31N 40°46' W 074°00'0 0.0
2015-Jul-03 07:31N 40°46' W 074°00'0 0.0
2015-Jul-03 06:31N 40°46' W 074°00'0 0.0
2015-Jul-03 05:31N 40°46' W 074°00'0 0.0
2015-Jul-03 04:31N 40°46' W 074°00'0 0.0
2015-Jul-03 03:31N 40°46' W 074°00'0 0.0
2015-Jul-03 02:31N 40°46' W 074°00'0 0.0
2015-Jul-03 01:31N 40°46' W 074°00'0 0.0
2015-Jul-03 00:31N 40°46' W 074°00'0 0.0
2015-Jul-02 23:34N 40°46' W 074°00'0 0.0
2015-Jul-02 22:30N 40°46' W 074°00'0 0.0
2015-Jul-02 21:33N 40°46' W 074°00'0 0.0
2015-Jul-02 20:33N 40°46' W 074°00'0 0.0
2015-Jul-02 19:33N 40°46' W 074°00'2 2.2
2015-Jul-02 18:33N 40°48' W 073°59'2 2.1
2015-Jul-02 17:22N 40°46' W 073°57'7 8.1
2015-Jul-02 16:33N 40°41' W 074°03'5 4.9
2015-Jul-02 15:32N 40°46' W 074°00'4 4.4
2015-Jul-02 14:33N 40°42' W 074°02'4 0.3
2015-Jul-02 00:34N 40°46' W 074°00'4 3.8
2015-Jul-01 23:34N 40°42' W 074°00'4 3.8
2015-Jul-01 22:33N 40°46' W 074°00'0 0.0
2015-Jul-01 21:33N 40°46' W 074°00'3 3.1
2015-Jul-01 20:33N 40°43' W 073°58'3 2.9
2015-Jul-01 19:31N 40°46' W 074°00'3 2.9
2015-Jul-01 18:33N 40°43' W 074°01'2 2.3
2015-Jul-01 17:33N 40°41' W 074°03'5 5.0
2015-Jul-01 16:32N 40°46' W 074°00'0 0.0
2015-Jun-30 21:33N 40°46' W 074°00'0 0.1
2015-Jun-30 20:29N 40°46' W 074°00'0 0.0
2015-Jun-30 19:32N 40°46' W 074°00'2 2.3
2015-Jun-30 18:33N 40°48' W 073°59'2 2.2
2015-Jun-30 17:28N 40°46' W 073°57'7 7.4
2015-Jun-30 16:33N 40°41' W 074°02'5 4.6
2015-Jun-30 15:31N 40°46' W 074°00'5 5.1
2015-Jun-30 14:33N 40°41' W 074°03'5 0.3
2015-Jun-29 22:32N 40°46' W 074°00'0 0.0
2015-Jun-29 21:32N 40°46' W 074°00'3 2.7
2015-Jun-29 20:33N 40°44' W 073°58'3 2.6
2015-Jun-29 19:31N 40°46' W 074°00'2 2.5
2015-Jun-29 18:34N 40°44' W 074°01'3 2.7
2015-Jun-29 17:34N 40°41' W 074°03'3 0.1
2015-Jun-28 00:33N 40°44' W 074°01'2 2.2
2015-Jun-27 23:33N 40°42' W 074°02'4 1.8
2015-Jun-27 21:34N 40°45' W 074°01'1 0.7
2015-Jun-27 20:33N 40°46' W 074°00'0 0.0
2015-Jun-26 22:06N 40°46' W 074°00'0 0.4
2015-Jun-26 21:34N 40°46' W 074°00'0 0.2
2015-Jun-26 20:29N 40°46' W 074°00'0 0.0
2015-Jun-26 19:32N 40°46' W 074°00'1 1.3
2015-Jun-26 18:33N 40°47' W 073°60'2 1.7
2015-Jun-26 17:14N 40°46' W 073°57'710.1
2015-Jun-26 16:33N 40°41' W 074°03'5 4.6
2015-Jun-26 15:29N 40°46' W 074°00'5 5.6
2015-Jun-26 14:33N 40°41' W 074°03'5 5.0
2015-Jun-26 13:31N 40°46' W 074°00'0 0.0
2015-Jun-26 12:31N 40°46' W 074°00'0 0.0
2015-Jun-25 22:32N 40°46' W 074°00'0 0.0
2015-Jun-25 21:31N 40°46' W 074°00'2 2.5
2015-Jun-25 20:33N 40°44' W 073°58'2 2.2
2015-Jun-25 19:29N 40°46' W 074°00'2 2.4
2015-Jun-25 18:33N 40°44' W 074°01'3 2.7
2015-Jun-25 17:33N 40°41' W 074°03'  
Track history (hours):
 
Tides and Currents Weather Stations Pressure Air Temp Water Temp Dewpoint Dewpoint Depression Visibility Wind Speed Wind Dir Waves Ship Positions

Circle Line Xii

Owner: CIRCLE LINE SIGHTSEEING YACHTS, NEW YORK, NY. More information available from US FCC via Universal Licensing System and Coast Guard Vessel Documentation Center.

Last reported at 2015-Jul-05 02:34 UTC. Time now 2015-Jul-05 13:17 UTC.
Position N 40°43' W 074°01'.

MMSI: 367032250.

Date/timePositionNaut miles runAvg speedWind from/ knotsBaromVisibWave heightAir tempDewpointWater temp
2015-Jul-05 02:34N 40°43' W 074°01'3 2.1
2015-Jul-05 01:21N 40°44' W 073°58'0 0.0
2015-Jul-05 00:33N 40°44' W 073°58'0 0.1
2015-Jul-04 23:33N 40°44' W 073°58'0 0.4
2015-Jul-04 22:33N 40°44' W 073°58'3 2.9
2015-Jul-04 21:33N 40°42' W 074°00'4 3.9
2015-Jul-04 20:33N 40°46' W 074°00'0 0.1
2015-Jul-04 19:32N 40°46' W 074°00'0 0.0
2015-Jul-04 01:07N 40°46' W 074°00'3 6.2
2015-Jul-04 00:34N 40°42' W 074°01'1 1.1
2015-Jul-03 23:34N 40°42' W 074°02'4 4.3
2015-Jul-03 22:32N 40°46' W 074°00'0 0.5
2015-Jul-03 21:33N 40°45' W 074°01'0 0.4
2015-Jul-03 20:32N 40°46' W 074°00'0 0.0
2015-Jul-03 19:32N 40°46' W 074°00'0 0.0
2015-Jul-03 18:32N 40°46' W 074°00'0 0.0
2015-Jul-03 17:32N 40°46' W 074°00'0 0.0
2015-Jul-03 16:31N 40°46' W 074°00'0 0.0
2015-Jul-03 15:31N 40°46' W 074°00'5 4.9
2015-Jul-03 14:33N 40°41' W 074°02'5 4.5
2015-Jul-03 13:31N 40°46' W 074°00'0 0.0
2015-Jul-03 12:31N 40°46' W 074°00'0 0.0
2015-Jul-03 11:31N 40°46' W 074°00'0 0.0
2015-Jul-03 10:31N 40°46' W 074°00'0 0.0
2015-Jul-03 09:31N 40°46' W 074°00'0 0.0
2015-Jul-03 08:31N 40°46' W 074°00'0 0.0
2015-Jul-03 07:31N 40°46' W 074°00'0 0.0
2015-Jul-03 06:31N 40°46' W 074°00'0 0.0
2015-Jul-03 05:31N 40°46' W 074°00'0 0.0
2015-Jul-03 04:31N 40°46' W 074°00'0 0.0
2015-Jul-03 03:31N 40°46' W 074°00'0 0.0
2015-Jul-03 02:31N 40°46' W 074°00'0 0.0
2015-Jul-03 01:31N 40°46' W 074°00'0 0.0
2015-Jul-03 00:31N 40°46' W 074°00'0 0.0
2015-Jul-02 23:34N 40°46' W 074°00'0 0.0
2015-Jul-02 22:30N 40°46' W 074°00'0 0.0
2015-Jul-02 21:33N 40°46' W 074°00'0 0.0
2015-Jul-02 20:33N 40°46' W 074°00'0 0.0
2015-Jul-02 19:33N 40°46' W 074°00'2 2.2
2015-Jul-02 18:33N 40°48' W 073°59'2 2.1
2015-Jul-02 17:22N 40°46' W 073°57'7 8.1
2015-Jul-02 16:33N 40°41' W 074°03'5 4.9
2015-Jul-02 15:32N 40°46' W 074°00'4 4.4
2015-Jul-02 14:33N 40°42' W 074°02'4 0.3
2015-Jul-02 00:34N 40°46' W 074°00'4 3.8
2015-Jul-01 23:34N 40°42' W 074°00'4 3.8
2015-Jul-01 22:33N 40°46' W 074°00'0 0.0
2015-Jul-01 21:33N 40°46' W 074°00'3 3.1
2015-Jul-01 20:33N 40°43' W 073°58'3 2.9
2015-Jul-01 19:31N 40°46' W 074°00'3 2.9
2015-Jul-01 18:33N 40°43' W 074°01'2 2.3
2015-Jul-01 17:33N 40°41' W 074°03'5 5.0
2015-Jul-01 16:32N 40°46' W 074°00'0 0.0
2015-Jun-30 21:33N 40°46' W 074°00'0 0.1
2015-Jun-30 20:29N 40°46' W 074°00'0 0.0
2015-Jun-30 19:32N 40°46' W 074°00'2 2.3
2015-Jun-30 18:33N 40°48' W 073°59'2 2.2
2015-Jun-30 17:28N 40°46' W 073°57'7 7.4
2015-Jun-30 16:33N 40°41' W 074°02'5 4.6
2015-Jun-30 15:31N 40°46' W 074°00'5 5.1
2015-Jun-30 14:33N 40°41' W 074°03'5 0.3
2015-Jun-29 22:32N 40°46' W 074°00'0 0.0
2015-Jun-29 21:32N 40°46' W 074°00'3 2.7
2015-Jun-29 20:33N 40°44' W 073°58'3 2.6
2015-Jun-29 19:31N 40°46' W 074°00'2 2.5
2015-Jun-29 18:34N 40°44' W 074°01'3 2.7
2015-Jun-29 17:34N 40°41' W 074°03'3 0.1
2015-Jun-28 00:33N 40°44' W 074°01'2 2.2
2015-Jun-27 23:33N 40°42' W 074°02'4 1.8
2015-Jun-27 21:34N 40°45' W 074°01'1 0.7
2015-Jun-27 20:33N 40°46' W 074°00'0 0.0
2015-Jun-26 22:06N 40°46' W 074°00'0 0.4
2015-Jun-26 21:34N 40°46' W 074°00'0 0.2
2015-Jun-26 20:29N 40°46' W 074°00'0 0.0
2015-Jun-26 19:32N 40°46' W 074°00'1 1.3
2015-Jun-26 18:33N 40°47' W 073°60'2 1.7
2015-Jun-26 17:14N 40°46' W 073°57'710.1
2015-Jun-26 16:33N 40°41' W 074°03'5 4.6
2015-Jun-26 15:29N 40°46' W 074°00'5 5.6
2015-Jun-26 14:33N 40°41' W 074°03'5 5.0
2015-Jun-26 13:31N 40°46' W 074°00'0 0.0
2015-Jun-26 12:31N 40°46' W 074°00'0 0.0
2015-Jun-25 22:32N 40°46' W 074°00'0 0.0
2015-Jun-25 21:31N 40°46' W 074°00'2 2.5
2015-Jun-25 20:33N 40°44' W 073°58'2 2.2
2015-Jun-25 19:29N 40°46' W 074°00'2 2.4
2015-Jun-25 18:33N 40°44' W 074°01'3 2.7
2015-Jun-25 17:33N 40°41' W 074°03'  

Dump ship's entire track history